createdAt,value
2023-04-14T00:00:59.784Z,598.00
2023-04-14T00:01:59.908Z,599.00
2023-04-14T00:03:00.057Z,597.00
2023-04-14T00:04:00.143Z,597.00
2023-04-14T00:05:00.054Z,598.00
2023-04-14T00:06:00.112Z,594.00
2023-04-14T00:07:00.169Z,594.00
2023-04-14T00:08:00.191Z,596.00
2023-04-14T00:09:00.555Z,595.00
2023-04-14T00:10:00.348Z,594.00
2023-04-14T00:11:00.375Z,594.00
2023-04-14T00:12:00.442Z,593.00
2023-04-14T00:13:00.497Z,594.00
2023-04-14T00:14:00.541Z,593.00
2023-04-14T00:15:00.615Z,589.00
2023-04-14T00:16:00.633Z,586.00
2023-04-14T00:17:00.734Z,585.00
2023-04-14T00:18:00.791Z,583.00
2023-04-14T00:19:01.090Z,582.00
2023-04-14T00:20:00.900Z,580.00
2023-04-14T00:21:00.954Z,581.00
2023-04-14T00:22:01.007Z,582.00
2023-04-14T00:23:01.105Z,584.00
2023-04-14T00:24:01.132Z,583.00
2023-04-14T00:25:01.149Z,582.00
2023-04-14T00:26:01.249Z,580.00
2023-04-14T00:27:01.306Z,580.00
2023-04-14T00:28:01.413Z,581.00
2023-04-14T00:29:01.646Z,580.00
2023-04-14T00:30:01.459Z,580.00
2023-04-14T00:31:01.596Z,579.00
2023-04-14T00:32:01.578Z,579.00
2023-04-14T00:33:01.667Z,579.00
2023-04-14T00:34:01.675Z,580.00
2023-04-14T00:35:01.743Z,582.00
2023-04-14T00:36:01.809Z,583.00
2023-04-14T00:37:01.850Z,583.00
2023-04-14T00:38:01.900Z,580.00
2023-04-14T00:39:02.314Z,581.00
2023-04-14T00:40:02.047Z,579.00
2023-04-14T00:41:02.131Z,578.00
2023-04-14T00:42:02.134Z,580.00
2023-04-14T00:43:02.232Z,577.00
2023-04-14T00:44:02.269Z,578.00
2023-04-14T00:45:02.337Z,578.00
2023-04-14T00:46:02.434Z,581.00
2023-04-14T00:47:02.410Z,581.00
2023-04-14T00:48:02.482Z,578.00
2023-04-14T00:49:02.905Z,578.00
2023-04-14T00:50:02.608Z,574.00
2023-04-14T00:51:02.642Z,575.00
2023-04-14T00:52:02.706Z,577.00
2023-04-14T00:53:02.786Z,576.00
2023-04-14T00:54:02.834Z,575.00
2023-04-14T00:55:02.879Z,576.00
2023-04-14T00:56:02.959Z,575.00
2023-04-14T00:57:02.981Z,572.00
2023-04-14T00:58:03.053Z,571.00
2023-04-14T00:59:03.126Z,569.00
2023-04-14T01:00:03.167Z,568.00
2023-04-14T01:01:03.192Z,566.00
2023-04-14T01:02:03.421Z,568.00
2023-04-14T01:03:03.502Z,570.00
2023-04-14T01:04:03.511Z,569.00
2023-04-14T01:05:03.486Z,564.00
2023-04-14T01:06:03.490Z,561.00
2023-04-14T01:07:03.549Z,566.00
2023-04-14T01:08:03.584Z,568.00
2023-04-14T01:09:03.663Z,568.00
2023-04-14T01:10:03.724Z,568.00
2023-04-14T01:11:03.784Z,565.00
2023-04-14T01:12:03.823Z,563.00
2023-04-14T01:13:03.893Z,562.00
2023-04-14T01:14:03.956Z,562.00
2023-04-14T01:15:04.004Z,563.00
2023-04-14T01:16:04.119Z,560.00
2023-04-14T01:17:04.104Z,559.00
2023-04-14T01:18:04.221Z,557.00
2023-04-14T01:19:04.222Z,556.00
2023-04-14T01:20:04.291Z,556.00
2023-04-14T01:21:04.324Z,556.00
2023-04-14T01:22:04.402Z,556.00
2023-04-14T01:23:04.451Z,555.00
2023-04-14T01:24:04.524Z,556.00
2023-04-14T01:25:04.585Z,554.00
2023-04-14T01:26:04.614Z,556.00
2023-04-14T01:27:04.721Z,555.00
2023-04-14T01:28:04.777Z,553.00
2023-04-14T01:29:04.816Z,550.00
2023-04-14T01:30:04.847Z,553.00
2023-04-14T01:31:04.958Z,553.00
2023-04-14T01:32:04.995Z,556.00
2023-04-14T01:33:05.025Z,558.00
2023-04-14T01:34:05.076Z,551.00
2023-04-14T01:35:05.133Z,552.00
2023-04-14T01:36:05.238Z,553.00
2023-04-14T01:37:05.253Z,554.00
2023-04-14T01:38:05.323Z,554.00
2023-04-14T01:39:05.362Z,556.00
2023-04-14T01:40:05.457Z,557.00
2023-04-14T01:41:05.502Z,556.00
2023-04-14T01:42:05.561Z,554.00
2023-04-14T01:43:05.597Z,555.00
2023-04-14T01:44:05.674Z,556.00
2023-04-14T01:45:05.711Z,557.00
2023-04-14T01:46:05.820Z,555.00
2023-04-14T01:47:05.880Z,553.00
2023-04-14T01:48:05.922Z,553.00
2023-04-14T01:49:05.950Z,553.00
2023-04-14T01:50:06.022Z,553.00
2023-04-14T01:51:06.069Z,553.00
2023-04-14T01:52:06.131Z,551.00
2023-04-14T01:53:06.170Z,550.00
2023-04-14T01:54:06.278Z,553.00
2023-04-14T01:55:06.307Z,553.00
2023-04-14T01:56:06.368Z,550.00
2023-04-14T01:57:06.419Z,546.00
2023-04-14T01:58:06.487Z,545.00
2023-04-14T01:59:06.579Z,545.00
2023-04-14T02:00:06.612Z,544.00
2023-04-14T02:01:06.722Z,544.00
2023-04-14T02:02:06.723Z,545.00
2023-04-14T02:03:06.886Z,548.00
2023-04-14T02:04:06.867Z,547.00
2023-04-14T02:05:06.833Z,543.00
2023-04-14T02:06:06.918Z,540.00
2023-04-14T02:07:06.955Z,542.00
2023-04-14T02:08:07.101Z,544.00
2023-04-14T02:09:07.136Z,545.00
2023-04-14T02:10:07.156Z,544.00
2023-04-14T02:11:07.181Z,547.00
2023-04-14T02:12:07.252Z,546.00
2023-04-14T02:13:07.301Z,546.00
2023-04-14T02:14:07.337Z,547.00
2023-04-14T02:15:07.412Z,547.00
2023-04-14T02:16:07.475Z,544.00
2023-04-14T02:17:07.551Z,543.00
2023-04-14T02:18:07.621Z,543.00
2023-04-14T02:19:07.669Z,543.00
2023-04-14T02:20:07.721Z,542.00
2023-04-14T02:21:07.755Z,545.00
2023-04-14T02:22:07.843Z,541.00
2023-04-14T02:23:07.872Z,539.00
2023-04-14T02:24:07.948Z,538.00
2023-04-14T02:25:08.007Z,537.00
2023-04-14T02:26:08.042Z,535.00
2023-04-14T02:27:08.095Z,535.00
2023-04-14T02:28:08.139Z,536.00
2023-04-14T02:29:08.235Z,537.00
2023-04-14T02:30:08.435Z,538.00
2023-04-14T02:31:08.370Z,534.00
2023-04-14T02:32:08.374Z,534.00
2023-04-14T02:33:08.461Z,534.00
2023-04-14T02:34:08.527Z,533.00
2023-04-14T02:35:08.588Z,533.00
2023-04-14T02:36:08.643Z,535.00
2023-04-14T02:37:08.709Z,535.00
2023-04-14T02:38:08.753Z,538.00
2023-04-14T02:39:08.794Z,537.00
2023-04-14T02:40:08.819Z,537.00
2023-04-14T02:41:08.894Z,538.00
2023-04-14T02:42:08.965Z,539.00
2023-04-14T02:43:09.200Z,538.00
2023-04-14T02:44:09.083Z,539.00
2023-04-14T02:45:09.147Z,539.00
2023-04-14T02:46:09.244Z,541.00
2023-04-14T02:47:09.256Z,539.00
2023-04-14T02:48:09.318Z,538.00
2023-04-14T02:49:10.511Z,540.00
2023-04-14T02:50:09.437Z,540.00
2023-04-14T02:51:09.477Z,537.00
2023-04-14T02:52:09.517Z,536.00
2023-04-14T02:53:09.637Z,535.00
2023-04-14T02:54:09.694Z,534.00
2023-04-14T02:55:09.814Z,536.00
2023-04-14T02:56:09.759Z,537.00
2023-04-14T02:57:09.844Z,538.00
2023-04-14T02:58:09.926Z,539.00
2023-04-14T02:59:09.941Z,537.00
2023-04-14T03:00:10.038Z,536.00
2023-04-14T03:01:10.102Z,533.00
2023-04-14T03:02:10.369Z,535.00
2023-04-14T03:03:10.398Z,534.00
2023-04-14T03:04:10.311Z,533.00
2023-04-14T03:05:10.300Z,534.00
2023-04-14T03:06:10.357Z,533.00
2023-04-14T03:07:10.425Z,529.00
2023-04-14T03:08:10.500Z,530.00
2023-04-14T03:09:10.520Z,532.00
2023-04-14T03:10:10.566Z,531.00
2023-04-14T03:11:10.662Z,531.00
2023-04-14T03:12:10.690Z,531.00
2023-04-14T03:13:10.750Z,530.00
2023-04-14T03:14:10.815Z,528.00
2023-04-14T03:15:10.861Z,527.00
2023-04-14T03:16:10.951Z,527.00
2023-04-14T03:17:11.005Z,524.00
2023-04-14T03:18:11.059Z,520.00
2023-04-14T03:19:11.119Z,520.00
2023-04-14T03:20:11.120Z,523.00
2023-04-14T03:21:11.216Z,526.00
2023-04-14T03:22:11.287Z,528.00
2023-04-14T03:23:11.324Z,529.00
2023-04-14T03:24:11.349Z,529.00
2023-04-14T03:25:11.419Z,530.00
2023-04-14T03:26:11.496Z,529.00
2023-04-14T03:27:11.558Z,528.00
2023-04-14T03:28:11.601Z,531.00
2023-04-14T03:29:11.693Z,532.00
2023-04-14T03:30:11.744Z,534.00
2023-04-14T03:31:11.835Z,535.00
2023-04-14T03:32:11.860Z,534.00
2023-04-14T03:33:11.914Z,536.00
2023-04-14T03:34:11.973Z,536.00
2023-04-14T03:35:12.059Z,533.00
2023-04-14T03:36:12.048Z,530.00
2023-04-14T03:37:12.107Z,528.00
2023-04-14T03:38:12.171Z,531.00
2023-04-14T03:39:12.183Z,530.00
2023-04-14T03:40:12.247Z,526.00
2023-04-14T03:41:12.276Z,524.00
2023-04-14T03:42:12.327Z,525.00
2023-04-14T03:43:12.342Z,522.00
2023-04-14T03:44:12.382Z,525.00
2023-04-14T03:45:12.410Z,524.00
2023-04-14T03:46:12.478Z,526.00
2023-04-14T03:47:12.496Z,524.00
2023-04-14T03:48:12.513Z,523.00
2023-04-14T03:49:12.558Z,523.00
2023-04-14T03:50:12.556Z,523.00
2023-04-14T03:51:12.630Z,524.00
2023-04-14T03:52:13.202Z,524.00
2023-04-14T03:53:12.683Z,522.00
2023-04-14T03:54:12.645Z,525.00
2023-04-14T03:55:12.681Z,524.00
2023-04-14T03:56:12.665Z,526.00
2023-04-14T03:57:12.716Z,526.00
2023-04-14T03:58:12.726Z,526.00
2023-04-14T03:59:12.753Z,526.00
2023-04-14T04:00:12.781Z,527.00
2023-04-14T04:01:12.774Z,525.00
2023-04-14T04:02:12.879Z,525.00
2023-04-14T04:03:12.999Z,526.00
2023-04-14T04:04:12.865Z,525.00
2023-04-14T04:05:12.864Z,527.00
2023-04-14T04:06:12.918Z,524.00
2023-04-14T04:07:12.925Z,521.00
2023-04-14T04:08:12.929Z,519.00
2023-04-14T04:09:12.962Z,518.00
2023-04-14T04:10:12.934Z,521.00
2023-04-14T04:11:13.029Z,523.00
2023-04-14T04:12:13.026Z,520.00
2023-04-14T04:13:13.047Z,520.00
2023-04-14T04:14:13.023Z,520.00
2023-04-14T04:15:13.050Z,522.00
2023-04-14T04:16:13.140Z,521.00
2023-04-14T04:17:13.213Z,522.00
2023-04-14T04:18:13.320Z,523.00
2023-04-14T04:19:13.413Z,523.00
2023-04-14T04:20:13.425Z,522.00
2023-04-14T04:21:13.426Z,520.00
2023-04-14T04:22:13.400Z,520.00
2023-04-14T04:23:13.409Z,521.00
2023-04-14T04:24:13.407Z,519.00
2023-04-14T04:25:13.455Z,518.00
2023-04-14T04:26:13.548Z,519.00
2023-04-14T04:27:26.534Z,520.00
2023-04-14T04:28:14.611Z,521.00
2023-04-14T04:29:13.617Z,522.00
2023-04-14T04:30:13.630Z,522.00
2023-04-14T04:31:13.626Z,524.00
2023-04-14T04:32:13.674Z,525.00
2023-04-14T04:33:13.689Z,524.00
2023-04-14T04:34:13.610Z,523.00
2023-04-14T04:35:13.572Z,519.00
2023-04-14T04:36:13.564Z,517.00
2023-04-14T04:37:13.608Z,518.00
2023-04-14T04:38:13.568Z,520.00
2023-04-14T04:39:13.586Z,521.00
2023-04-14T04:40:13.561Z,521.00
2023-04-14T04:41:13.535Z,521.00
2023-04-14T04:42:13.551Z,521.00
2023-04-14T04:43:13.527Z,522.00
2023-04-14T04:44:13.530Z,522.00
2023-04-14T04:45:13.499Z,521.00
2023-04-14T04:46:13.567Z,519.00
2023-04-14T04:47:13.522Z,517.00
2023-04-14T04:48:13.507Z,516.00
2023-04-14T04:49:13.513Z,515.00
2023-04-14T04:50:13.504Z,515.00
2023-04-14T04:51:13.502Z,516.00
2023-04-14T04:52:13.500Z,514.00
2023-04-14T04:53:13.462Z,514.00
2023-04-14T04:54:13.459Z,513.00
2023-04-14T04:55:13.484Z,512.00
2023-04-14T04:56:13.478Z,513.00
2023-04-14T04:57:13.437Z,516.00
2023-04-14T04:58:13.449Z,517.00
2023-04-14T04:59:13.422Z,519.00
2023-04-14T05:00:13.393Z,520.00
2023-04-14T05:01:13.466Z,521.00
2023-04-14T05:02:13.468Z,519.00
2023-04-14T05:03:13.470Z,518.00
2023-04-14T05:04:13.420Z,518.00
2023-04-14T05:05:13.393Z,517.00
2023-04-14T05:06:13.367Z,517.00
2023-04-14T05:07:13.495Z,519.00
2023-04-14T05:08:15.205Z,515.00
2023-04-14T05:09:13.444Z,514.00
2023-04-14T05:10:13.434Z,514.00
2023-04-14T05:11:13.436Z,514.00
2023-04-14T05:12:13.461Z,514.00
2023-04-14T05:13:13.511Z,513.00
2023-04-14T05:14:13.606Z,516.00
2023-04-14T05:15:13.718Z,520.00
2023-04-14T05:16:13.792Z,517.00
2023-04-14T05:17:13.732Z,513.00
2023-04-14T05:18:13.735Z,514.00
2023-04-14T05:19:13.774Z,512.00
2023-04-14T05:20:13.837Z,514.00
2023-04-14T05:21:13.909Z,517.00
2023-04-14T05:22:14.020Z,516.00
2023-04-14T05:23:14.038Z,515.00
2023-04-14T05:24:14.073Z,515.00
2023-04-14T05:25:14.030Z,516.00
2023-04-14T05:26:38.852Z,516.00
2023-04-14T05:27:15.079Z,516.00
2023-04-14T05:28:14.040Z,517.00
2023-04-14T05:29:14.052Z,519.00
2023-04-14T05:30:14.027Z,520.00
2023-04-14T05:31:14.041Z,521.00
2023-04-14T05:32:14.071Z,525.00
2023-04-14T05:33:14.040Z,527.00
2023-04-14T05:34:14.278Z,530.00
2023-04-14T05:35:14.006Z,535.00
2023-04-14T05:36:14.030Z,546.00
2023-04-14T05:37:13.978Z,557.00
2023-04-14T05:38:13.981Z,576.00
2023-04-14T05:39:14.284Z,591.00
2023-04-14T05:40:14.000Z,604.00
2023-04-14T05:41:13.966Z,613.00
2023-04-14T05:42:13.944Z,624.00
2023-04-14T05:43:13.941Z,638.00
2023-04-14T05:44:14.292Z,655.00
2023-04-14T05:45:13.922Z,679.00
2023-04-14T05:46:22.400Z,702.00
2023-04-14T05:47:13.975Z,720.00
2023-04-14T05:48:13.987Z,769.00
2023-04-14T05:49:13.992Z,796.00
2023-04-14T05:50:14.003Z,809.00
2023-04-14T05:51:14.014Z,820.00
2023-04-14T05:52:14.097Z,835.00
2023-04-14T05:53:14.139Z,894.00
2023-04-14T05:54:14.242Z,913.00
2023-04-14T05:55:14.237Z,987.00
2023-04-14T05:56:14.283Z,996.00
2023-04-14T05:57:14.364Z,1066.00
2023-04-14T05:58:14.399Z,1075.00
2023-04-14T05:59:14.487Z,1079.00
2023-04-14T06:00:14.533Z,1086.00
2023-04-14T06:01:14.616Z,1097.00
2023-04-14T06:02:14.694Z,1124.00
2023-04-14T06:03:14.817Z,1139.00
2023-04-14T06:04:14.890Z,1186.00
2023-04-14T06:05:14.875Z,1212.00
2023-04-14T06:06:14.867Z,1223.00
2023-04-14T06:07:14.935Z,1236.00
2023-04-14T06:08:14.936Z,1247.00
2023-04-14T06:09:15.328Z,1265.00
2023-04-14T06:10:15.079Z,1281.00
2023-04-14T06:11:15.133Z,1296.00
2023-04-14T06:12:15.198Z,1332.00
2023-04-14T06:13:15.220Z,1355.00
2023-04-14T06:14:15.252Z,1368.00
2023-04-14T06:15:15.298Z,1378.00
2023-04-14T06:16:15.343Z,1401.00
2023-04-14T06:17:15.370Z,1440.00
2023-04-14T06:18:15.397Z,1451.00
2023-04-14T06:19:15.801Z,1466.00
2023-04-14T06:20:15.504Z,1484.00
2023-04-14T06:21:15.514Z,1502.00
2023-04-14T06:22:15.565Z,1515.00
2023-04-14T06:23:15.621Z,1534.00
2023-04-14T06:24:15.615Z,1556.00
2023-04-14T06:25:15.695Z,1586.00
2023-04-14T06:26:15.690Z,1603.00
2023-04-14T06:27:15.736Z,1619.00
2023-04-14T06:28:15.750Z,1636.00
2023-04-14T06:29:15.750Z,1660.00
2023-04-14T06:30:15.781Z,1684.00
2023-04-14T06:31:15.930Z,1710.00
2023-04-14T06:32:15.957Z,1733.00
2023-04-14T06:33:15.868Z,1758.00
2023-04-14T06:34:16.781Z,1774.00
2023-04-14T06:35:29.520Z,1811.00
2023-04-14T06:36:16.901Z,1837.00
2023-04-14T06:37:15.905Z,1814.00
2023-04-14T06:38:15.876Z,1754.00
2023-04-14T06:39:16.348Z,1761.00
2023-04-14T06:40:15.903Z,1761.00
2023-04-14T06:41:15.842Z,1744.00
2023-04-14T06:42:15.839Z,1660.00
2023-04-14T06:43:15.846Z,1548.00
2023-04-14T06:44:15.816Z,1592.00
2023-04-14T06:45:15.809Z,1509.00
2023-04-14T06:46:15.898Z,1528.00
2023-04-14T06:47:15.949Z,1516.00
2023-04-14T06:48:15.980Z,1498.00
2023-04-14T06:49:16.060Z,1501.00
2023-04-14T06:50:16.113Z,1236.00
2023-04-14T06:51:16.111Z,1402.00
2023-04-14T06:52:16.249Z,1434.00
2023-04-14T06:53:16.252Z,1439.00
2023-04-14T06:54:16.346Z,1433.00
2023-04-14T06:55:16.399Z,1433.00
2023-04-14T06:56:16.457Z,1426.00
2023-04-14T06:57:16.479Z,1421.00
2023-04-14T06:58:16.617Z,1417.00
2023-04-14T06:59:16.857Z,1393.00
2023-04-14T07:00:16.784Z,1395.00
2023-04-14T07:01:16.810Z,1388.00
2023-04-14T07:02:16.825Z,1368.00
2023-04-14T07:03:16.973Z,1345.00
2023-04-14T07:04:17.389Z,1347.00
2023-04-14T07:05:16.981Z,1335.00
2023-04-14T07:06:17.198Z,1328.00
2023-04-14T07:07:17.105Z,1336.00
2023-04-14T07:08:17.153Z,1343.00
2023-04-14T07:09:17.350Z,1345.00
2023-04-14T07:10:17.277Z,1346.00
2023-04-14T07:11:17.311Z,1343.00
2023-04-14T07:12:17.374Z,1328.00
2023-04-14T07:13:17.420Z,1318.00
2023-04-14T07:14:17.493Z,1307.00
2023-04-14T07:15:17.517Z,1312.00
2023-04-14T07:16:17.615Z,1312.00
2023-04-14T07:17:17.627Z,1318.00
2023-04-14T07:18:17.681Z,1315.00
2023-04-14T07:19:17.877Z,1310.00
2023-04-14T07:20:17.760Z,1305.00
2023-04-14T07:21:17.835Z,1294.00
2023-04-14T07:22:17.933Z,1296.00
2023-04-14T07:23:17.924Z,1298.00
2023-04-14T07:24:18.006Z,1302.00
2023-04-14T07:25:18.112Z,1304.00
2023-04-14T07:26:18.169Z,1299.00
2023-04-14T07:27:18.173Z,1301.00
2023-04-14T07:28:18.248Z,1299.00
2023-04-14T07:29:18.270Z,1294.00
2023-04-14T07:30:18.351Z,1288.00
2023-04-14T07:31:18.450Z,1285.00
2023-04-14T07:32:18.472Z,1206.00
2023-04-14T07:33:18.486Z,1035.00
2023-04-14T07:34:18.855Z,1116.00
2023-04-14T07:35:18.669Z,1195.00
2023-04-14T07:36:18.666Z,1077.00
2023-04-14T07:37:19.379Z,1091.00
2023-04-14T07:38:18.660Z,1116.00
2023-04-14T07:39:22.835Z,1102.00
2023-04-14T07:40:18.694Z,1099.00
2023-04-14T07:41:18.703Z,1096.00
2023-04-14T07:42:18.651Z,1102.00
2023-04-14T07:43:18.689Z,1097.00
2023-04-14T07:44:18.646Z,1111.00
2023-04-14T07:45:18.834Z,1129.00
2023-04-14T07:46:18.686Z,1141.00
2023-04-14T07:47:19.416Z,1166.00
2023-04-14T07:48:18.609Z,1155.00
2023-04-14T07:49:19.366Z,1165.00
2023-04-14T07:50:19.893Z,1221.00
2023-04-14T07:51:18.589Z,1232.00
2023-04-14T07:52:18.605Z,1223.00
2023-04-14T07:53:19.552Z,1223.00
2023-04-14T07:54:18.567Z,1221.00
2023-04-14T07:55:18.558Z,1235.00
2023-04-14T07:56:18.563Z,1230.00
2023-04-14T07:57:18.592Z,1231.00
2023-04-14T07:58:18.531Z,1235.00
2023-04-14T07:59:18.611Z,1237.00
2023-04-14T08:00:18.547Z,1248.00
2023-04-14T08:01:18.582Z,1253.00
2023-04-14T08:02:18.738Z,1256.00
2023-04-14T08:03:18.888Z,1252.00
2023-04-14T08:04:18.819Z,1237.00
2023-04-14T08:05:18.854Z,1235.00
2023-04-14T08:06:18.845Z,1249.00
2023-04-14T08:07:18.942Z,1247.00
2023-04-14T08:08:18.965Z,1250.00
2023-04-14T08:09:19.010Z,1244.00
2023-04-14T08:10:19.072Z,1243.00
2023-04-14T08:11:19.093Z,1243.00
2023-04-14T08:12:19.166Z,1253.00
2023-04-14T08:13:19.230Z,1251.00
2023-04-14T08:14:19.269Z,1255.00
2023-04-14T08:15:19.277Z,1263.00
2023-04-14T08:16:19.411Z,1265.00
2023-04-14T08:17:19.422Z,1270.00
2023-04-14T08:18:19.438Z,1280.00
2023-04-14T08:19:19.459Z,1273.00
2023-04-14T08:20:19.882Z,1263.00
2023-04-14T08:21:19.580Z,1252.00
2023-04-14T08:22:19.580Z,1256.00
2023-04-14T08:23:19.708Z,1260.00
2023-04-14T08:24:19.691Z,1265.00
2023-04-14T08:25:19.746Z,1280.00
2023-04-14T08:26:19.774Z,1281.00
2023-04-14T08:27:19.819Z,1270.00
2023-04-14T08:28:19.896Z,1252.00
2023-04-14T08:30:39.425Z,1184.00
2023-04-14T08:31:39.330Z,1195.00
2023-04-14T08:32:39.313Z,1124.00
2023-04-14T08:33:39.293Z,1151.00
2023-04-14T08:34:39.294Z,1135.00
2023-04-14T08:35:42.562Z,1062.00
2023-04-14T08:36:39.256Z,1045.00
2023-04-14T08:37:39.239Z,1026.00
2023-04-14T08:38:39.239Z,1017.00
2023-04-14T08:39:39.243Z,1013.00
2023-04-14T08:40:39.244Z,1008.00
2023-04-14T08:41:39.238Z,978.00
2023-04-14T08:42:39.199Z,956.00
2023-04-14T08:43:39.192Z,944.00
2023-04-14T08:44:39.197Z,930.00
2023-04-14T08:45:39.437Z,920.00
2023-04-14T08:46:39.226Z,892.00
2023-04-14T08:47:39.228Z,867.00
2023-04-14T08:48:39.170Z,856.00
2023-04-14T08:49:39.176Z,831.00
2023-04-14T08:50:39.380Z,835.00
2023-04-14T08:51:39.169Z,840.00
2023-04-14T08:52:39.129Z,921.00
2023-04-14T08:53:39.152Z,1002.00
2023-04-14T08:54:39.121Z,944.00
2023-04-14T08:55:39.158Z,898.00
2023-04-14T08:56:39.267Z,799.00
2023-04-14T08:57:39.368Z,813.00
2023-04-14T08:58:39.388Z,802.00
2023-04-14T08:59:39.419Z,785.00
2023-04-14T09:00:40.337Z,742.00
2023-04-14T09:01:39.500Z,730.00
2023-04-14T09:02:39.606Z,734.00
2023-04-14T09:03:39.681Z,735.00
2023-04-14T09:04:39.657Z,726.00
2023-04-14T09:05:39.592Z,720.00
2023-04-14T09:06:39.698Z,714.00
2023-04-14T09:07:39.705Z,733.00
2023-04-14T09:08:39.785Z,738.00
2023-04-14T09:09:39.842Z,731.00
2023-04-14T09:10:39.860Z,725.00
2023-04-14T09:11:39.839Z,743.00
2023-04-14T09:12:41.672Z,770.00
2023-04-14T09:13:39.884Z,770.00
2023-04-14T09:14:39.929Z,784.00
2023-04-14T09:15:40.001Z,797.00
2023-04-14T09:16:40.051Z,802.00
2023-04-14T09:17:40.014Z,807.00
2023-04-14T09:18:40.336Z,856.00
2023-04-14T09:20:36.270Z,838.00
2023-04-14T09:20:41.885Z,816.00
2023-04-14T09:21:53.897Z,819.00
2023-04-14T09:22:40.917Z,825.00
2023-04-14T09:23:39.897Z,848.00
2023-04-14T09:24:40.939Z,785.00
2023-04-14T09:25:40.952Z,786.00
2023-04-14T09:26:39.895Z,790.00
2023-04-14T09:27:39.874Z,787.00
2023-04-14T09:28:39.866Z,791.00
2023-04-14T09:29:39.883Z,789.00
2023-04-14T09:30:39.925Z,905.00
2023-04-14T09:31:39.990Z,907.00
2023-04-14T09:32:39.918Z,933.00
2023-04-14T09:33:39.904Z,1008.00
2023-04-14T09:34:39.825Z,973.00
2023-04-14T09:35:39.847Z,970.00
2023-04-14T09:36:39.958Z,964.00
2023-04-14T09:37:39.808Z,975.00
2023-04-14T09:38:39.795Z,968.00
2023-04-14T09:39:39.805Z,937.00
2023-04-14T09:40:39.762Z,935.00
2023-04-14T09:41:39.974Z,955.00
2023-04-14T09:42:39.782Z,945.00
2023-04-14T09:43:41.456Z,928.00
2023-04-14T09:44:39.727Z,1024.00
2023-04-14T09:45:39.798Z,1024.00
2023-04-14T09:46:40.009Z,925.00
2023-04-14T09:47:39.950Z,955.00
2023-04-14T09:48:39.860Z,920.00
2023-04-14T09:49:39.871Z,790.00
2023-04-14T09:50:39.930Z,759.00
2023-04-14T09:51:39.950Z,748.00
2023-04-14T09:52:40.032Z,701.00
2023-04-14T09:53:40.054Z,693.00
2023-04-14T09:54:40.087Z,690.00
2023-04-14T09:55:40.080Z,644.00
2023-04-14T09:56:40.176Z,628.00
2023-04-14T09:57:40.162Z,627.00
2023-04-14T09:58:40.239Z,725.00
2023-04-14T09:59:40.283Z,708.00
2023-04-14T10:00:40.317Z,696.00
2023-04-14T10:01:40.446Z,603.00
2023-04-14T10:02:40.616Z,599.00
2023-04-14T10:03:40.572Z,613.00
2023-04-14T10:04:40.661Z,625.00
2023-04-14T10:05:40.612Z,622.00
2023-04-14T10:06:40.952Z,620.00
2023-04-14T10:07:40.608Z,611.00
2023-04-14T10:08:40.570Z,612.00
2023-04-14T10:09:40.651Z,663.00
2023-04-14T10:10:40.631Z,678.00
2023-04-14T10:11:40.705Z,662.00
2023-04-14T10:12:40.823Z,649.00
2023-04-14T10:13:40.802Z,653.00
2023-04-14T10:14:40.827Z,668.00
2023-04-14T10:15:40.928Z,670.00
2023-04-14T10:16:40.942Z,675.00
2023-04-14T10:17:40.984Z,681.00
2023-04-14T10:18:41.022Z,709.00
2023-04-14T10:19:41.074Z,709.00
2023-04-14T10:20:41.134Z,707.00
2023-04-14T10:21:41.165Z,676.00
2023-04-14T10:22:41.324Z,694.00
2023-04-14T10:23:41.191Z,709.00
2023-04-14T10:24:41.201Z,756.00
2023-04-14T10:25:41.241Z,779.00
2023-04-14T10:26:41.245Z,816.00
2023-04-14T10:27:41.260Z,809.00
2023-04-14T10:28:41.271Z,868.00
2023-04-14T10:29:41.246Z,905.00
2023-04-14T10:30:41.253Z,903.00
2023-04-14T10:31:41.495Z,898.00
2023-04-14T10:32:41.366Z,895.00
2023-04-14T10:33:41.360Z,896.00
2023-04-14T10:34:42.792Z,894.00
2023-04-14T10:35:41.480Z,896.00
2023-04-14T10:36:42.183Z,898.00
2023-04-14T10:37:41.592Z,902.00
2023-04-14T10:38:41.652Z,906.00
2023-04-14T10:39:41.640Z,911.00
2023-04-14T10:40:41.700Z,914.00
2023-04-14T10:41:41.941Z,917.00
2023-04-14T10:42:41.762Z,921.00
2023-04-14T10:43:41.760Z,923.00
2023-04-14T10:44:41.788Z,927.00
2023-04-14T10:45:41.846Z,932.00
2023-04-14T10:46:41.858Z,934.00
2023-04-14T10:47:41.934Z,930.00
2023-04-14T10:48:41.907Z,930.00
2023-04-14T10:49:41.869Z,932.00
2023-04-14T10:50:41.886Z,932.00
2023-04-14T10:51:41.936Z,936.00
2023-04-14T10:52:41.934Z,937.00
2023-04-14T10:53:41.952Z,939.00
2023-04-14T10:54:42.010Z,936.00
2023-04-14T10:55:51.261Z,934.00
2023-04-14T10:56:42.982Z,933.00
2023-04-14T10:57:41.982Z,934.00
2023-04-14T10:58:41.977Z,932.00
2023-04-14T10:59:41.997Z,934.00
2023-04-14T11:00:42.010Z,936.00
2023-04-14T11:01:41.947Z,935.00
2023-04-14T11:02:42.111Z,936.00
2023-04-14T11:03:42.077Z,931.00
2023-04-14T11:04:41.919Z,928.00
2023-04-14T11:05:41.931Z,925.00
2023-04-14T11:06:41.940Z,923.00
2023-04-14T11:07:41.910Z,922.00
2023-04-14T11:08:41.908Z,918.00
2023-04-14T11:09:41.897Z,916.00
2023-04-14T11:10:41.926Z,914.00
2023-04-14T11:11:41.899Z,914.00
2023-04-14T11:12:41.945Z,913.00
2023-04-14T11:13:41.854Z,908.00
2023-04-14T11:14:41.848Z,904.00
2023-04-14T11:15:41.846Z,902.00
2023-04-14T11:16:47.462Z,899.00
2023-04-14T11:17:42.935Z,896.00
2023-04-14T11:18:43.908Z,895.00
2023-04-14T11:19:41.819Z,892.00
2023-04-14T11:20:41.831Z,888.00
2023-04-14T11:21:41.839Z,887.00
2023-04-14T11:22:41.848Z,887.00
2023-04-14T11:23:41.850Z,888.00
2023-04-14T11:24:41.795Z,884.00
2023-04-14T11:25:41.813Z,878.00
2023-04-14T11:26:41.801Z,877.00
2023-04-14T11:27:41.996Z,872.00
2023-04-14T11:28:41.778Z,871.00
2023-04-14T11:29:41.807Z,869.00
2023-04-14T11:30:41.773Z,867.00
2023-04-14T11:31:41.740Z,867.00
2023-04-14T11:32:42.024Z,864.00
2023-04-14T11:33:41.866Z,861.00
2023-04-14T11:34:41.770Z,860.00
2023-04-14T11:35:41.726Z,861.00
2023-04-14T11:36:41.746Z,860.00
2023-04-14T11:37:41.743Z,857.00
2023-04-14T11:38:41.730Z,855.00
2023-04-14T11:39:41.680Z,856.00
2023-04-14T11:40:41.697Z,856.00
2023-04-14T11:41:41.721Z,856.00
2023-04-14T11:42:41.686Z,853.00
2023-04-14T11:43:41.685Z,854.00
2023-04-14T11:44:41.649Z,852.00
2023-04-14T11:45:41.700Z,849.00
2023-04-14T11:46:41.877Z,846.00
2023-04-14T11:47:41.707Z,848.00
2023-04-14T11:48:41.650Z,849.00
2023-04-14T11:49:41.645Z,850.00
2023-04-14T11:50:41.623Z,851.00
2023-04-14T11:51:41.640Z,852.00
2023-04-14T11:52:41.617Z,851.00
2023-04-14T11:53:41.611Z,853.00
2023-04-14T11:54:41.610Z,853.00
2023-04-14T11:55:41.590Z,850.00
2023-04-14T11:56:41.589Z,849.00
2023-04-14T11:57:41.573Z,849.00
2023-04-14T11:58:41.598Z,848.00
2023-04-14T11:59:41.559Z,843.00
2023-04-14T12:00:41.556Z,839.00
2023-04-14T12:01:41.555Z,839.00
2023-04-14T12:02:41.682Z,839.00
2023-04-14T12:03:41.669Z,841.00
2023-04-14T12:04:41.661Z,843.00
2023-04-14T12:05:41.738Z,842.00
2023-04-14T12:06:41.533Z,844.00
2023-04-14T12:07:41.529Z,844.00
2023-04-14T12:08:41.500Z,845.00
2023-04-14T12:09:41.486Z,843.00
2023-04-14T12:10:41.481Z,839.00
2023-04-14T12:11:41.511Z,838.00
2023-04-14T12:12:41.492Z,839.00
2023-04-14T12:13:41.508Z,839.00
2023-04-14T12:14:41.481Z,842.00
2023-04-14T12:15:41.557Z,838.00
2023-04-14T12:16:41.512Z,835.00
2023-04-14T12:17:41.528Z,833.00
2023-04-14T12:18:41.468Z,830.00
2023-04-14T12:19:41.462Z,831.00
2023-04-14T12:20:41.428Z,831.00
2023-04-14T12:21:41.425Z,828.00
2023-04-14T12:22:41.420Z,827.00
2023-04-14T12:23:41.632Z,824.00
2023-04-14T12:24:41.389Z,824.00
2023-04-14T12:25:41.389Z,825.00